Date,TemperatureHighF,TemperatureAvgF,TemperatureLowF,DewpointHighF,DewpointAvgF,DewpointLowF,HumidityHigh,HumidityAvg,HumidityLow,PressureMaxIn,PressureMinIn,WindSpeedMaxMPH,WindSpeedAvgMPH,GustSpeedMaxMPH,PrecipitationSumIn
2013-4-1,50.1,43.4,38.1,42.0,28.4,19.0,83,58,36,30.16,29.82,9,2,15,0.00
2013-4-2,47.9,37.3,25.0,24.0,19.4,14.0,80,51,26,30.32,30.17,6,2,13,0.00
2013-4-3,50.2,38.3,25.8,21.0,17.7,15.0,72,46,26,30.48,30.31,10,1,12,0.00
2013-4-4,58.2,44.1,34.3,25.0,20.5,18.0,53,41,22,30.38,30.04,6,1,9,0.00
2013-4-5,62.0,48.2,33.8,40.0,29.7,25.0,79,52,29,30.17,30.02,10,2,17,0.00
2013-4-6,68.7,53.7,39.6,40.0,31.7,24.0,60,45,30,30.25,29.94,6,2,13,0.00
2013-4-7,72.8,64.3,56.9,57.0,47.8,38.0,97,57,42,30.02,29.89,11,4,16,0.24
2013-4-8,73.5,64.0,54.0,57.0,55.3,52.0,98,75,56,30.02,29.89,11,3,19,0.09
2013-4-9,80.5,69.6,56.5,61.0,57.7,53.0,89,68,47,30.06,29.93,15,4,24,0.00
2013-4-10,83.9,75.3,65.5,66.0,62.4,60.0,82,65,51,29.97,29.76,14,4,23,0.00
2013-4-11,71.5,63.8,59.6,64.0,60.3,58.0,98,89,70,29.82,29.55,7,1,12,1.14
2013-4-12,59.6,47.8,41.6,59.0,40.4,33.0,98,76,60,29.96,29.53,14,4,19,0.13
2013-4-13,60.0,48.1,36.9,40.0,35.8,33.0,89,65,40,30.07,29.96,14,3,23,0.00
2013-4-14,73.8,57.4,40.6,47.0,41.6,36.0,83,59,35,30.10,29.89,8,1,9,0.00
2013-4-15,70.4,63.2,57.1,56.0,52.4,46.0,82,69,57,30.01,29.91,6,2,11,0.00
2013-4-16,81.0,65.5,56.5,66.0,59.6,53.0,97,82,60,30.19,29.97,22,3,27,0.34
2013-4-17,80.7,65.9,56.5,67.0,61.2,56.0,98,86,58,30.20,29.97,9,2,13,0.10
2013-4-18,83.3,74.2,64.1,66.0,60.2,55.0,86,64,43,29.97,29.60,20,5,26,0.00
2013-4-19,75.9,49.6,39.5,62.0,41.6,32.0,94,75,51,30.03,29.44,14,5,21,0.67
2013-4-20,51.9,43.7,36.6,35.0,30.8,27.0,88,63,40,30.46,30.03,9,3,16,0.00
2013-4-21,59.0,46.9,34.4,33.0,29.5,25.0,71,53,34,30.59,30.42,5,1,11,0.00
2013-4-22,72.7,56.3,38.8,44.0,36.4,30.0,74,50,31,30.42,30.16,5,1,10,0.00
2013-4-23,71.0,60.7,45.9,54.0,48.9,43.0,89,67,53,30.17,29.89,9,2,14,0.00
2013-4-24,66.3,51.7,36.9,57.0,45.3,36.0,95,80,61,30.27,29.80,11,3,19,0.64
2013-4-25,61.0,46.8,33.3,40.0,35.8,31.0,98,70,39,30.44,30.27,12,2,16,0.00
2013-4-26,64.8,50.9,34.4,40.0,34.4,31.0,95,59,29,30.52,30.37,5,1,8,0.00
2013-4-27,65.2,56.2,43.5,52.0,43.7,37.0,81,65,40,30.38,30.08,8,2,11,0.00
2013-4-28,69.1,60.3,54.9,61.0,56.3,52.0,96,87,71,30.07,29.84,8,2,12,0.08
2013-4-29,66.5,59.1,53.2,59.0,55.5,52.0,97,88,67,30.03,29.91,3,0,7,0.03
2013-4-30,81.9,65.1,48.7,59.0,54.3,48.0,99,73,39,30.08,30.00,5,1,9,0.01